sensor_id;sensor_type;location;lat;lon;timestamp;P1;durP1;ratioP1;P2;durP2;ratioP2
22967;SDS011;11650;48.106;-1.696;2022-08-21T00:00:52;19.53;;;3.87;;
22967;SDS011;11650;48.106;-1.696;2022-08-21T00:03:18;15.03;;;3.97;;
22967;SDS011;11650;48.106;-1.696;2022-08-21T00:05:48;14.40;;;3.20;;
22967;SDS011;11650;48.106;-1.696;2022-08-21T00:08:15;20.93;;;3.77;;
22967;SDS011;11650;48.106;-1.696;2022-08-21T00:10:42;19.13;;;3.30;;
22967;SDS011;11650;48.106;-1.696;2022-08-21T00:13:08;20.80;;;3.10;;
22967;SDS011;11650;48.106;-1.696;2022-08-21T00:15:36;15.17;;;3.00;;
22967;SDS011;11650;48.106;-1.696;2022-08-21T00:18:03;21.53;;;3.40;;
22967;SDS011;11650;48.106;-1.696;2022-08-21T00:20:29;19.73;;;3.43;;
22967;SDS011;11650;48.106;-1.696;2022-08-21T00:22:56;15.20;;;3.20;;
22967;SDS011;11650;48.106;-1.696;2022-08-21T00:25:21;14.17;;;3.10;;
22967;SDS011;11650;48.106;-1.696;2022-08-21T00:27:47;15.57;;;3.27;;
22967;SDS011;11650;48.106;-1.696;2022-08-21T00:30:14;19.40;;;3.20;;
22967;SDS011;11650;48.106;-1.696;2022-08-21T00:32:42;13.33;;;3.27;;
22967;SDS011;11650;48.106;-1.696;2022-08-21T00:35:10;16.33;;;2.90;;
22967;SDS011;11650;48.106;-1.696;2022-08-21T00:37:39;15.70;;;3.50;;
22967;SDS011;11650;48.106;-1.696;2022-08-21T00:40:05;17.83;;;3.60;;
22967;SDS011;11650;48.106;-1.696;2022-08-21T00:42:35;16.60;;;3.53;;
22967;SDS011;11650;48.106;-1.696;2022-08-21T00:45:02;16.73;;;3.50;;
22967;SDS011;11650;48.106;-1.696;2022-08-21T00:47:29;17.37;;;3.53;;
22967;SDS011;11650;48.106;-1.696;2022-08-21T00:49:54;16.93;;;3.17;;
22967;SDS011;11650;48.106;-1.696;2022-08-21T00:52:21;13.87;;;3.10;;
22967;SDS011;11650;48.106;-1.696;2022-08-21T00:54:52;14.37;;;3.30;;
22967;SDS011;11650;48.106;-1.696;2022-08-21T00:57:22;14.90;;;3.10;;
22967;SDS011;11650;48.106;-1.696;2022-08-21T00:59:54;17.40;;;3.80;;
22967;SDS011;11650;48.106;-1.696;2022-08-21T01:02:23;16.13;;;3.50;;
22967;SDS011;11650;48.106;-1.696;2022-08-21T01:04:50;15.43;;;3.40;;
22967;SDS011;11650;48.106;-1.696;2022-08-21T01:07:16;14.07;;;3.53;;
22967;SDS011;11650;48.106;-1.696;2022-08-21T01:09:43;17.53;;;2.97;;
22967;SDS011;11650;48.106;-1.696;2022-08-21T01:12:11;14.33;;;3.13;;
22967;SDS011;11650;48.106;-1.696;2022-08-21T01:14:38;16.77;;;3.43;;
22967;SDS011;11650;48.106;-1.696;2022-08-21T01:17:05;15.40;;;3.67;;
22967;SDS011;11650;48.106;-1.696;2022-08-21T01:19:31;14.27;;;3.37;;
22967;SDS011;11650;48.106;-1.696;2022-08-21T01:21:57;21.03;;;3.60;;
22967;SDS011;11650;48.106;-1.696;2022-08-21T01:24:24;17.23;;;3.73;;
22967;SDS011;11650;48.106;-1.696;2022-08-21T01:26:50;16.53;;;3.33;;
22967;SDS011;11650;48.106;-1.696;2022-08-21T01:32:04;13.17;;;3.10;;
22967;SDS011;11650;48.106;-1.696;2022-08-21T01:34:34;19.17;;;3.37;;
22967;SDS011;11650;48.106;-1.696;2022-08-21T01:37:03;15.37;;;3.40;;
22967;SDS011;11650;48.106;-1.696;2022-08-21T01:39:29;16.53;;;3.30;;
22967;SDS011;11650;48.106;-1.696;2022-08-21T01:41:55;14.93;;;3.47;;
22967;SDS011;11650;48.106;-1.696;2022-08-21T01:44:24;16.27;;;3.00;;
22967;SDS011;11650;48.106;-1.696;2022-08-21T01:46:50;15.40;;;4.27;;
22967;SDS011;11650;48.106;-1.696;2022-08-21T01:49:16;11.03;;;3.03;;
22967;SDS011;11650;48.106;-1.696;2022-08-21T01:51:43;15.20;;;3.50;;
22967;SDS011;11650;48.106;-1.696;2022-08-21T01:54:09;19.20;;;3.20;;
22967;SDS011;11650;48.106;-1.696;2022-08-21T01:56:39;17.90;;;3.83;;
22967;SDS011;11650;48.106;-1.696;2022-08-21T01:59:06;16.07;;;3.93;;
22967;SDS011;11650;48.106;-1.696;2022-08-21T02:01:32;17.90;;;3.87;;
22967;SDS011;11650;48.106;-1.696;2022-08-21T02:03:58;17.60;;;3.60;;
22967;SDS011;11650;48.106;-1.696;2022-08-21T02:06:24;13.77;;;3.30;;
22967;SDS011;11650;48.106;-1.696;2022-08-21T02:08:51;17.63;;;3.67;;
22967;SDS011;11650;48.106;-1.696;2022-08-21T02:11:17;18.50;;;3.47;;
22967;SDS011;11650;48.106;-1.696;2022-08-21T02:13:43;18.37;;;4.10;;
22967;SDS011;11650;48.106;-1.696;2022-08-21T02:16:11;16.97;;;3.57;;
22967;SDS011;11650;48.106;-1.696;2022-08-21T02:18:36;18.17;;;4.03;;
22967;SDS011;11650;48.106;-1.696;2022-08-21T02:21:03;16.33;;;3.93;;
22967;SDS011;11650;48.106;-1.696;2022-08-21T02:23:30;17.10;;;4.30;;
22967;SDS011;11650;48.106;-1.696;2022-08-21T02:25:57;19.60;;;4.43;;
22967;SDS011;11650;48.106;-1.696;2022-08-21T02:28:24;15.73;;;4.03;;
22967;SDS011;11650;48.106;-1.696;2022-08-21T02:30:50;15.57;;;3.80;;
22967;SDS011;11650;48.106;-1.696;2022-08-21T02:33:16;16.03;;;4.33;;
22967;SDS011;11650;48.106;-1.696;2022-08-21T02:35:44;19.40;;;4.47;;
22967;SDS011;11650;48.106;-1.696;2022-08-21T02:38:12;15.40;;;4.37;;
22967;SDS011;11650;48.106;-1.696;2022-08-21T02:40:41;14.43;;;4.20;;
22967;SDS011;11650;48.106;-1.696;2022-08-21T02:43:09;15.53;;;4.27;;
22967;SDS011;11650;48.106;-1.696;2022-08-21T02:45:35;18.13;;;3.90;;
22967;SDS011;11650;48.106;-1.696;2022-08-21T02:48:03;16.57;;;4.07;;
22967;SDS011;11650;48.106;-1.696;2022-08-21T02:50:32;16.83;;;3.73;;
22967;SDS011;11650;48.106;-1.696;2022-08-21T02:53:03;19.60;;;3.87;;
22967;SDS011;11650;48.106;-1.696;2022-08-21T02:55:30;22.50;;;4.47;;
22967;SDS011;11650;48.106;-1.696;2022-08-21T02:57:58;18.60;;;4.67;;
22967;SDS011;11650;48.106;-1.696;2022-08-21T03:00:25;17.67;;;4.77;;
22967;SDS011;11650;48.106;-1.696;2022-08-21T03:02:52;17.33;;;4.30;;
22967;SDS011;11650;48.106;-1.696;2022-08-21T03:05:20;20.00;;;3.90;;
22967;SDS011;11650;48.106;-1.696;2022-08-21T03:07:46;12.90;;;4.43;;
22967;SDS011;11650;48.106;-1.696;2022-08-21T03:10:13;24.37;;;5.00;;
22967;SDS011;11650;48.106;-1.696;2022-08-21T03:12:40;24.30;;;4.43;;
22967;SDS011;11650;48.106;-1.696;2022-08-21T03:15:07;17.13;;;4.23;;
22967;SDS011;11650;48.106;-1.696;2022-08-21T03:17:35;18.50;;;4.20;;
22967;SDS011;11650;48.106;-1.696;2022-08-21T03:20:01;17.70;;;4.27;;
22967;SDS011;11650;48.106;-1.696;2022-08-21T03:22:28;20.27;;;4.33;;
22967;SDS011;11650;48.106;-1.696;2022-08-21T03:24:53;17.43;;;4.97;;
22967;SDS011;11650;48.106;-1.696;2022-08-21T03:27:19;15.17;;;4.23;;
22967;SDS011;11650;48.106;-1.696;2022-08-21T03:29:45;20.37;;;3.90;;
22967;SDS011;11650;48.106;-1.696;2022-08-21T03:32:11;19.67;;;4.40;;
22967;SDS011;11650;48.106;-1.696;2022-08-21T03:34:37;19.53;;;3.60;;
22967;SDS011;11650;48.106;-1.696;2022-08-21T03:37:04;16.47;;;3.93;;
22967;SDS011;11650;48.106;-1.696;2022-08-21T03:39:32;13.40;;;3.80;;
22967;SDS011;11650;48.106;-1.696;2022-08-21T03:41:58;19.60;;;4.90;;
22967;SDS011;11650;48.106;-1.696;2022-08-21T03:44:24;19.50;;;4.40;;
22967;SDS011;11650;48.106;-1.696;2022-08-21T03:46:53;16.77;;;4.33;;
22967;SDS011;11650;48.106;-1.696;2022-08-21T03:49:19;17.00;;;4.23;;
22967;SDS011;11650;48.106;-1.696;2022-08-21T03:51:45;20.37;;;4.87;;
22967;SDS011;11650;48.106;-1.696;2022-08-21T03:54:11;18.83;;;4.63;;
22967;SDS011;11650;48.106;-1.696;2022-08-21T03:56:36;24.97;;;4.73;;
22967;SDS011;11650;48.106;-1.696;2022-08-21T03:59:02;26.80;;;5.57;;
22967;SDS011;11650;48.106;-1.696;2022-08-21T04:01:28;16.10;;;4.53;;
22967;SDS011;11650;48.106;-1.696;2022-08-21T04:03:54;18.83;;;4.83;;
22967;SDS011;11650;48.106;-1.696;2022-08-21T04:06:20;19.73;;;5.10;;
22967;SDS011;11650;48.106;-1.696;2022-08-21T04:08:45;17.90;;;4.70;;
22967;SDS011;11650;48.106;-1.696;2022-08-21T04:11:11;16.57;;;4.90;;
22967;SDS011;11650;48.106;-1.696;2022-08-21T04:13:37;17.20;;;4.70;;
22967;SDS011;11650;48.106;-1.696;2022-08-21T04:16:03;18.07;;;5.07;;
22967;SDS011;11650;48.106;-1.696;2022-08-21T04:18:29;20.90;;;5.43;;
22967;SDS011;11650;48.106;-1.696;2022-08-21T04:20:55;20.13;;;4.73;;
22967;SDS011;11650;48.106;-1.696;2022-08-21T04:23:23;20.77;;;5.60;;
22967;SDS011;11650;48.106;-1.696;2022-08-21T04:25:51;22.57;;;5.67;;
22967;SDS011;11650;48.106;-1.696;2022-08-21T04:28:18;15.30;;;5.30;;
22967;SDS011;11650;48.106;-1.696;2022-08-21T04:30:45;18.07;;;5.23;;
22967;SDS011;11650;48.106;-1.696;2022-08-21T04:33:11;21.27;;;6.23;;
22967;SDS011;11650;48.106;-1.696;2022-08-21T04:35:36;20.20;;;5.27;;
22967;SDS011;11650;48.106;-1.696;2022-08-21T04:38:02;16.60;;;5.90;;
22967;SDS011;11650;48.106;-1.696;2022-08-21T04:40:28;23.37;;;6.17;;
22967;SDS011;11650;48.106;-1.696;2022-08-21T04:42:58;17.10;;;5.63;;
22967;SDS011;11650;48.106;-1.696;2022-08-21T04:45:28;21.57;;;5.87;;
22967;SDS011;11650;48.106;-1.696;2022-08-21T04:47:57;15.50;;;6.00;;
22967;SDS011;11650;48.106;-1.696;2022-08-21T04:50:37;15.30;;;5.40;;
22967;SDS011;11650;48.106;-1.696;2022-08-21T04:53:16;19.03;;;6.40;;
22967;SDS011;11650;48.106;-1.696;2022-08-21T04:55:47;20.77;;;6.33;;
22967;SDS011;11650;48.106;-1.696;2022-08-21T04:58:15;17.73;;;5.83;;
22967;SDS011;11650;48.106;-1.696;2022-08-21T05:00:42;17.57;;;5.63;;
22967;SDS011;11650;48.106;-1.696;2022-08-21T05:03:09;24.70;;;6.40;;
22967;SDS011;11650;48.106;-1.696;2022-08-21T05:05:37;19.73;;;6.13;;
22967;SDS011;11650;48.106;-1.696;2022-08-21T05:08:04;21.43;;;6.90;;
22967;SDS011;11650;48.106;-1.696;2022-08-21T05:10:32;20.77;;;6.60;;
22967;SDS011;11650;48.106;-1.696;2022-08-21T05:12:58;22.87;;;6.70;;
22967;SDS011;11650;48.106;-1.696;2022-08-21T05:15:25;17.73;;;6.17;;
22967;SDS011;11650;48.106;-1.696;2022-08-21T05:17:52;19.53;;;6.10;;
22967;SDS011;11650;48.106;-1.696;2022-08-21T05:20:17;20.27;;;6.07;;
22967;SDS011;11650;48.106;-1.696;2022-08-21T05:22:44;21.60;;;6.00;;
22967;SDS011;11650;48.106;-1.696;2022-08-21T05:25:10;15.57;;;6.30;;
22967;SDS011;11650;48.106;-1.696;2022-08-21T05:27:36;23.03;;;6.57;;
22967;SDS011;11650;48.106;-1.696;2022-08-21T05:30:03;18.13;;;6.17;;
22967;SDS011;11650;48.106;-1.696;2022-08-21T05:32:30;23.00;;;7.07;;
22967;SDS011;11650;48.106;-1.696;2022-08-21T05:34:55;18.37;;;6.80;;
22967;SDS011;11650;48.106;-1.696;2022-08-21T05:37:21;21.77;;;6.60;;
22967;SDS011;11650;48.106;-1.696;2022-08-21T05:39:47;19.20;;;7.17;;
22967;SDS011;11650;48.106;-1.696;2022-08-21T05:42:12;18.90;;;6.63;;
22967;SDS011;11650;48.106;-1.696;2022-08-21T05:44:38;20.43;;;6.70;;
22967;SDS011;11650;48.106;-1.696;2022-08-21T05:47:07;22.53;;;6.40;;
22967;SDS011;11650;48.106;-1.696;2022-08-21T05:49:34;22.30;;;6.30;;
22967;SDS011;11650;48.106;-1.696;2022-08-21T05:52:01;19.13;;;6.87;;
22967;SDS011;11650;48.106;-1.696;2022-08-21T05:54:27;20.17;;;7.03;;
22967;SDS011;11650;48.106;-1.696;2022-08-21T05:56:53;20.17;;;6.50;;
22967;SDS011;11650;48.106;-1.696;2022-08-21T05:59:19;22.43;;;7.20;;
22967;SDS011;11650;48.106;-1.696;2022-08-21T06:01:45;23.87;;;6.73;;
22967;SDS011;11650;48.106;-1.696;2022-08-21T06:04:11;18.77;;;6.10;;
22967;SDS011;11650;48.106;-1.696;2022-08-21T06:06:38;23.20;;;6.17;;
22967;SDS011;11650;48.106;-1.696;2022-08-21T06:09:04;16.57;;;5.83;;
22967;SDS011;11650;48.106;-1.696;2022-08-21T06:11:30;23.23;;;6.63;;
22967;SDS011;11650;48.106;-1.696;2022-08-21T06:13:56;18.27;;;6.00;;
22967;SDS011;11650;48.106;-1.696;2022-08-21T06:16:22;18.73;;;5.80;;
22967;SDS011;11650;48.106;-1.696;2022-08-21T06:18:48;18.63;;;6.23;;
22967;SDS011;11650;48.106;-1.696;2022-08-21T06:21:14;19.00;;;6.00;;
22967;SDS011;11650;48.106;-1.696;2022-08-21T06:23:40;14.43;;;5.90;;
22967;SDS011;11650;48.106;-1.696;2022-08-21T06:26:07;19.73;;;6.67;;
22967;SDS011;11650;48.106;-1.696;2022-08-21T06:28:34;18.07;;;6.20;;
22967;SDS011;11650;48.106;-1.696;2022-08-21T06:31:00;14.87;;;5.73;;
22967;SDS011;11650;48.106;-1.696;2022-08-21T06:33:26;20.43;;;6.30;;
22967;SDS011;11650;48.106;-1.696;2022-08-21T06:35:52;23.70;;;6.67;;
22967;SDS011;11650;48.106;-1.696;2022-08-21T06:38:17;23.03;;;6.37;;
22967;SDS011;11650;48.106;-1.696;2022-08-21T06:40:44;19.37;;;6.53;;
22967;SDS011;11650;48.106;-1.696;2022-08-21T06:43:11;18.07;;;5.90;;
22967;SDS011;11650;48.106;-1.696;2022-08-21T06:45:38;22.07;;;5.83;;
22967;SDS011;11650;48.106;-1.696;2022-08-21T06:48:04;18.80;;;5.20;;
22967;SDS011;11650;48.106;-1.696;2022-08-21T06:50:31;14.63;;;5.50;;
22967;SDS011;11650;48.106;-1.696;2022-08-21T06:53:08;18.43;;;5.00;;
22967;SDS011;11650;48.106;-1.696;2022-08-21T06:55:36;15.37;;;5.00;;
22967;SDS011;11650;48.106;-1.696;2022-08-21T06:58:03;20.23;;;5.50;;
22967;SDS011;11650;48.106;-1.696;2022-08-21T07:00:30;18.53;;;5.80;;
22967;SDS011;11650;48.106;-1.696;2022-08-21T07:02:56;18.43;;;6.20;;
22967;SDS011;11650;48.106;-1.696;2022-08-21T07:05:25;22.20;;;5.60;;
22967;SDS011;11650;48.106;-1.696;2022-08-21T07:07:52;19.33;;;6.13;;
22967;SDS011;11650;48.106;-1.696;2022-08-21T07:10:17;20.63;;;6.43;;
22967;SDS011;11650;48.106;-1.696;2022-08-21T07:12:43;18.83;;;5.67;;
22967;SDS011;11650;48.106;-1.696;2022-08-21T07:15:09;19.40;;;6.07;;
22967;SDS011;11650;48.106;-1.696;2022-08-21T07:17:35;19.37;;;5.63;;
22967;SDS011;11650;48.106;-1.696;2022-08-21T07:20:01;16.00;;;5.77;;
22967;SDS011;11650;48.106;-1.696;2022-08-21T07:22:28;18.70;;;5.60;;
22967;SDS011;11650;48.106;-1.696;2022-08-21T07:24:54;15.00;;;4.83;;
22967;SDS011;11650;48.106;-1.696;2022-08-21T07:27:20;19.63;;;5.33;;
22967;SDS011;11650;48.106;-1.696;2022-08-21T07:29:46;19.47;;;5.70;;
22967;SDS011;11650;48.106;-1.696;2022-08-21T07:32:11;18.10;;;5.23;;
22967;SDS011;11650;48.106;-1.696;2022-08-21T07:34:37;16.17;;;5.33;;
22967;SDS011;11650;48.106;-1.696;2022-08-21T07:37:03;19.43;;;5.87;;
22967;SDS011;11650;48.106;-1.696;2022-08-21T07:39:29;19.27;;;5.27;;
22967;SDS011;11650;48.106;-1.696;2022-08-21T07:41:54;19.13;;;4.53;;
22967;SDS011;11650;48.106;-1.696;2022-08-21T07:44:20;19.20;;;5.53;;
22967;SDS011;11650;48.106;-1.696;2022-08-21T07:46:45;19.20;;;4.97;;
22967;SDS011;11650;48.106;-1.696;2022-08-21T07:49:11;15.67;;;4.80;;
22967;SDS011;11650;48.106;-1.696;2022-08-21T07:51:37;19.63;;;4.80;;
22967;SDS011;11650;48.106;-1.696;2022-08-21T07:54:03;14.40;;;4.53;;
22967;SDS011;11650;48.106;-1.696;2022-08-21T07:56:30;17.97;;;4.80;;
22967;SDS011;11650;48.106;-1.696;2022-08-21T07:58:56;16.37;;;4.53;;
22967;SDS011;11650;48.106;-1.696;2022-08-21T08:01:23;16.67;;;4.40;;
22967;SDS011;11650;48.106;-1.696;2022-08-21T08:03:49;15.27;;;4.43;;
22967;SDS011;11650;48.106;-1.696;2022-08-21T08:06:15;15.00;;;3.97;;
22967;SDS011;11650;48.106;-1.696;2022-08-21T08:08:43;19.00;;;4.60;;
22967;SDS011;11650;48.106;-1.696;2022-08-21T08:11:09;19.97;;;4.60;;
22967;SDS011;11650;48.106;-1.696;2022-08-21T08:13:40;14.33;;;3.53;;
22967;SDS011;11650;48.106;-1.696;2022-08-21T08:16:07;18.33;;;4.23;;
22967;SDS011;11650;48.106;-1.696;2022-08-21T08:18:33;13.90;;;3.87;;
22967;SDS011;11650;48.106;-1.696;2022-08-21T08:20:59;16.17;;;3.93;;
22967;SDS011;11650;48.106;-1.696;2022-08-21T08:23:24;18.27;;;4.50;;
22967;SDS011;11650;48.106;-1.696;2022-08-21T08:25:51;16.33;;;4.03;;
22967;SDS011;11650;48.106;-1.696;2022-08-21T08:28:16;19.03;;;4.67;;
22967;SDS011;11650;48.106;-1.696;2022-08-21T08:30:42;19.77;;;4.47;;
22967;SDS011;11650;48.106;-1.696;2022-08-21T08:33:08;16.77;;;4.07;;
22967;SDS011;11650;48.106;-1.696;2022-08-21T08:35:34;19.53;;;3.87;;
22967;SDS011;11650;48.106;-1.696;2022-08-21T08:38:01;15.97;;;3.33;;
22967;SDS011;11650;48.106;-1.696;2022-08-21T08:43:18;14.97;;;3.00;;
22967;SDS011;11650;48.106;-1.696;2022-08-21T08:45:46;15.27;;;3.30;;
22967;SDS011;11650;48.106;-1.696;2022-08-21T08:48:20;14.90;;;3.40;;
22967;SDS011;11650;48.106;-1.696;2022-08-21T08:51:18;11.83;;;3.10;;
22967;SDS011;11650;48.106;-1.696;2022-08-21T08:53:53;11.77;;;2.60;;
22967;SDS011;11650;48.106;-1.696;2022-08-21T08:56:26;13.27;;;2.30;;
22967;SDS011;11650;48.106;-1.696;2022-08-21T08:58:56;16.20;;;3.13;;
22967;SDS011;11650;48.106;-1.696;2022-08-21T09:01:26;12.67;;;3.00;;
22967;SDS011;11650;48.106;-1.696;2022-08-21T09:03:52;16.50;;;3.10;;
22967;SDS011;11650;48.106;-1.696;2022-08-21T09:11:40;16.40;;;2.57;;
22967;SDS011;11650;48.106;-1.696;2022-08-21T09:19:59;10.47;;;2.20;;
22967;SDS011;11650;48.106;-1.696;2022-08-21T09:25:24;8.37;;;2.00;;
22967;SDS011;11650;48.106;-1.696;2022-08-21T09:27:52;8.67;;;1.90;;
22967;SDS011;11650;48.106;-1.696;2022-08-21T09:30:19;10.70;;;2.40;;
22967;SDS011;11650;48.106;-1.696;2022-08-21T09:32:51;9.60;;;2.27;;
22967;SDS011;11650;48.106;-1.696;2022-08-21T09:35:18;10.80;;;2.30;;
22967;SDS011;11650;48.106;-1.696;2022-08-21T09:37:47;10.63;;;2.50;;
22967;SDS011;11650;48.106;-1.696;2022-08-21T09:40:15;12.40;;;2.73;;
22967;SDS011;11650;48.106;-1.696;2022-08-21T09:42:55;9.80;;;2.40;;
22967;SDS011;11650;48.106;-1.696;2022-08-21T09:45:22;11.23;;;2.57;;
22967;SDS011;11650;48.106;-1.696;2022-08-21T09:47:48;10.03;;;2.23;;
22967;SDS011;11650;48.106;-1.696;2022-08-21T09:50:15;9.67;;;2.50;;
22967;SDS011;11650;48.106;-1.696;2022-08-21T09:52:48;9.67;;;2.50;;
22967;SDS011;11650;48.106;-1.696;2022-08-21T09:55:57;9.07;;;2.30;;
22967;SDS011;11650;48.106;-1.696;2022-08-21T09:58:37;11.70;;;2.30;;
22967;SDS011;11650;48.106;-1.696;2022-08-21T10:01:05;8.87;;;2.17;;
22967;SDS011;11650;48.106;-1.696;2022-08-21T10:03:31;9.63;;;2.10;;
22967;SDS011;11650;48.106;-1.696;2022-08-21T10:05:58;8.43;;;2.27;;
22967;SDS011;11650;48.106;-1.696;2022-08-21T10:08:27;10.10;;;2.10;;
22967;SDS011;11650;48.106;-1.696;2022-08-21T10:10:57;10.50;;;1.97;;
22967;SDS011;11650;48.106;-1.696;2022-08-21T10:28:18;10.30;;;2.20;;
22967;SDS011;11650;48.106;-1.696;2022-08-21T10:30:56;8.13;;;2.00;;
22967;SDS011;11650;48.106;-1.696;2022-08-21T10:33:46;12.50;;;2.37;;
22967;SDS011;11650;48.106;-1.696;2022-08-21T10:44:31;7.67;;;1.70;;
22967;SDS011;11650;48.106;-1.696;2022-08-21T10:47:08;10.33;;;2.27;;
22967;SDS011;11650;48.106;-1.696;2022-08-21T10:55:12;8.67;;;2.10;;
22967;SDS011;11650;48.106;-1.696;2022-08-21T10:57:54;12.77;;;2.77;;
22967;SDS011;11650;48.106;-1.696;2022-08-21T11:00:29;9.17;;;2.47;;
22967;SDS011;11650;48.106;-1.696;2022-08-21T11:03:22;11.13;;;2.60;;
22967;SDS011;11650;48.106;-1.696;2022-08-21T11:05:52;8.00;;;2.23;;
22967;SDS011;11650;48.106;-1.696;2022-08-21T11:08:36;13.73;;;2.70;;
22967;SDS011;11650;48.106;-1.696;2022-08-21T11:11:05;9.33;;;2.37;;
22967;SDS011;11650;48.106;-1.696;2022-08-21T11:13:45;8.83;;;2.27;;
22967;SDS011;11650;48.106;-1.696;2022-08-21T11:16:36;12.10;;;2.70;;
22967;SDS011;11650;48.106;-1.696;2022-08-21T11:19:19;7.00;;;2.10;;
22967;SDS011;11650;48.106;-1.696;2022-08-21T11:30:06;7.87;;;1.97;;
22967;SDS011;11650;48.106;-1.696;2022-08-21T11:32:41;10.13;;;2.50;;
22967;SDS011;11650;48.106;-1.696;2022-08-21T11:35:38;9.97;;;1.83;;
22967;SDS011;11650;48.106;-1.696;2022-08-21T11:43:40;8.30;;;2.20;;
22967;SDS011;11650;48.106;-1.696;2022-08-21T11:46:49;9.17;;;2.10;;
22967;SDS011;11650;48.106;-1.696;2022-08-21T11:49:42;11.07;;;2.13;;
22967;SDS011;11650;48.106;-1.696;2022-08-21T11:52:40;9.93;;;2.20;;
22967;SDS011;11650;48.106;-1.696;2022-08-21T11:55:18;9.10;;;2.30;;
22967;SDS011;11650;48.106;-1.696;2022-08-21T11:57:51;8.43;;;2.43;;
22967;SDS011;11650;48.106;-1.696;2022-08-21T12:02:52;11.47;;;2.93;;
22967;SDS011;11650;48.106;-1.696;2022-08-21T12:05:26;8.23;;;2.40;;
22967;SDS011;11650;48.106;-1.696;2022-08-21T12:08:04;10.17;;;2.93;;
22967;SDS011;11650;48.106;-1.696;2022-08-21T12:11:08;7.40;;;2.77;;
22967;SDS011;11650;48.106;-1.696;2022-08-21T12:13:52;8.60;;;2.20;;
22967;SDS011;11650;48.106;-1.696;2022-08-21T12:16:35;12.33;;;2.77;;
22967;SDS011;11650;48.106;-1.696;2022-08-21T12:19:10;10.50;;;2.73;;
22967;SDS011;11650;48.106;-1.696;2022-08-21T12:24:39;11.30;;;2.90;;
22967;SDS011;11650;48.106;-1.696;2022-08-21T12:27:17;9.73;;;3.03;;
22967;SDS011;11650;48.106;-1.696;2022-08-21T12:29:55;8.53;;;2.70;;
22967;SDS011;11650;48.106;-1.696;2022-08-21T12:35:11;12.87;;;3.57;;
22967;SDS011;11650;48.106;-1.696;2022-08-21T12:37:45;11.43;;;3.53;;
22967;SDS011;11650;48.106;-1.696;2022-08-21T12:40:36;12.30;;;3.30;;
22967;SDS011;11650;48.106;-1.696;2022-08-21T12:43:11;8.17;;;3.10;;
22967;SDS011;11650;48.106;-1.696;2022-08-21T12:45:44;11.20;;;2.87;;
22967;SDS011;11650;48.106;-1.696;2022-08-21T12:50:57;5.57;;;2.50;;
22967;SDS011;11650;48.106;-1.696;2022-08-21T12:53:45;5.27;;;2.30;;
22967;SDS011;11650;48.106;-1.696;2022-08-21T12:56:18;9.27;;;2.70;;
22967;SDS011;11650;48.106;-1.696;2022-08-21T12:58:50;9.93;;;2.90;;
22967;SDS011;11650;48.106;-1.696;2022-08-21T13:01:25;6.07;;;2.47;;
22967;SDS011;11650;48.106;-1.696;2022-08-21T13:03:57;5.50;;;2.30;;
22967;SDS011;11650;48.106;-1.696;2022-08-21T13:06:26;4.40;;;1.90;;
22967;SDS011;11650;48.106;-1.696;2022-08-21T13:08:57;6.17;;;1.77;;
22967;SDS011;11650;48.106;-1.696;2022-08-21T13:11:31;5.13;;;2.00;;
22967;SDS011;11650;48.106;-1.696;2022-08-21T13:13:57;3.73;;;1.57;;
22967;SDS011;11650;48.106;-1.696;2022-08-21T13:16:24;4.00;;;1.63;;
22967;SDS011;11650;48.106;-1.696;2022-08-21T13:18:55;3.40;;;1.60;;
22967;SDS011;11650;48.106;-1.696;2022-08-21T13:21:33;2.53;;;1.63;;
22967;SDS011;11650;48.106;-1.696;2022-08-21T13:24:17;4.73;;;1.73;;
22967;SDS011;11650;48.106;-1.696;2022-08-21T13:26:43;2.50;;;1.80;;
22967;SDS011;11650;48.106;-1.696;2022-08-21T13:29:09;5.23;;;1.90;;
22967;SDS011;11650;48.106;-1.696;2022-08-21T13:31:37;3.53;;;1.60;;
22967;SDS011;11650;48.106;-1.696;2022-08-21T13:34:07;3.67;;;1.70;;
22967;SDS011;11650;48.106;-1.696;2022-08-21T13:36:36;5.13;;;1.90;;
22967;SDS011;11650;48.106;-1.696;2022-08-21T13:39:06;3.17;;;1.60;;
22967;SDS011;11650;48.106;-1.696;2022-08-21T13:41:35;2.57;;;1.10;;
22967;SDS011;11650;48.106;-1.696;2022-08-21T13:44:04;2.43;;;1.43;;
22967;SDS011;11650;48.106;-1.696;2022-08-21T13:46:42;2.70;;;1.53;;
22967;SDS011;11650;48.106;-1.696;2022-08-21T13:49:09;2.17;;;1.20;;
22967;SDS011;11650;48.106;-1.696;2022-08-21T13:51:37;3.57;;;1.37;;
22967;SDS011;11650;48.106;-1.696;2022-08-21T13:54:20;3.03;;;1.23;;
22967;SDS011;11650;48.106;-1.696;2022-08-21T13:56:51;2.57;;;1.30;;
22967;SDS011;11650;48.106;-1.696;2022-08-21T13:59:24;2.83;;;1.40;;
22967;SDS011;11650;48.106;-1.696;2022-08-21T14:04:44;3.10;;;1.37;;
22967;SDS011;11650;48.106;-1.696;2022-08-21T14:07:17;3.23;;;1.53;;
22967;SDS011;11650;48.106;-1.696;2022-08-21T14:09:52;5.47;;;1.57;;
22967;SDS011;11650;48.106;-1.696;2022-08-21T14:12:26;2.80;;;1.50;;
22967;SDS011;11650;48.106;-1.696;2022-08-21T14:14:57;4.17;;;1.80;;
22967;SDS011;11650;48.106;-1.696;2022-08-21T14:17:29;5.00;;;1.70;;
22967;SDS011;11650;48.106;-1.696;2022-08-21T14:19:58;4.73;;;2.10;;
22967;SDS011;11650;48.106;-1.696;2022-08-21T14:22:31;4.60;;;1.97;;
22967;SDS011;11650;48.106;-1.696;2022-08-21T14:30:34;5.07;;;1.83;;
22967;SDS011;11650;48.106;-1.696;2022-08-21T14:33:03;3.67;;;1.90;;
22967;SDS011;11650;48.106;-1.696;2022-08-21T14:35:33;2.07;;;1.50;;
22967;SDS011;11650;48.106;-1.696;2022-08-21T14:37:59;2.67;;;1.50;;
22967;SDS011;11650;48.106;-1.696;2022-08-21T14:40:25;3.23;;;1.50;;
22967;SDS011;11650;48.106;-1.696;2022-08-21T14:42:51;3.40;;;1.53;;
22967;SDS011;11650;48.106;-1.696;2022-08-21T14:47:50;2.73;;;1.67;;
22967;SDS011;11650;48.106;-1.696;2022-08-21T14:50:16;2.40;;;1.50;;
22967;SDS011;11650;48.106;-1.696;2022-08-21T14:52:42;3.33;;;1.40;;
22967;SDS011;11650;48.106;-1.696;2022-08-21T14:55:09;2.20;;;1.53;;
22967;SDS011;11650;48.106;-1.696;2022-08-21T14:57:38;2.33;;;1.40;;
22967;SDS011;11650;48.106;-1.696;2022-08-21T15:00:16;3.00;;;1.70;;
22967;SDS011;11650;48.106;-1.696;2022-08-21T15:02:44;2.83;;;1.53;;
22967;SDS011;11650;48.106;-1.696;2022-08-21T15:05:11;3.67;;;1.50;;
22967;SDS011;11650;48.106;-1.696;2022-08-21T15:07:38;3.83;;;1.33;;
22967;SDS011;11650;48.106;-1.696;2022-08-21T15:10:04;2.87;;;1.30;;
22967;SDS011;11650;48.106;-1.696;2022-08-21T15:12:31;2.87;;;1.23;;
22967;SDS011;11650;48.106;-1.696;2022-08-21T15:14:57;2.83;;;1.47;;
22967;SDS011;11650;48.106;-1.696;2022-08-21T15:17:23;2.83;;;1.50;;
22967;SDS011;11650;48.106;-1.696;2022-08-21T15:19:49;2.90;;;1.37;;
22967;SDS011;11650;48.106;-1.696;2022-08-21T15:22:15;2.53;;;1.40;;
22967;SDS011;11650;48.106;-1.696;2022-08-21T15:24:40;1.67;;;1.33;;
22967;SDS011;11650;48.106;-1.696;2022-08-21T15:27:06;2.73;;;1.30;;
22967;SDS011;11650;48.106;-1.696;2022-08-21T15:29:34;2.40;;;1.20;;
22967;SDS011;11650;48.106;-1.696;2022-08-21T15:32:02;3.00;;;1.27;;
22967;SDS011;11650;48.106;-1.696;2022-08-21T15:34:41;2.33;;;1.40;;
22967;SDS011;11650;48.106;-1.696;2022-08-21T15:37:06;2.87;;;1.50;;
22967;SDS011;11650;48.106;-1.696;2022-08-21T15:39:33;2.47;;;1.53;;
22967;SDS011;11650;48.106;-1.696;2022-08-21T15:41:59;3.50;;;1.20;;
22967;SDS011;11650;48.106;-1.696;2022-08-21T15:44:25;1.73;;;1.10;;
22967;SDS011;11650;48.106;-1.696;2022-08-21T15:46:53;2.17;;;1.50;;
22967;SDS011;11650;48.106;-1.696;2022-08-21T15:49:19;2.20;;;1.03;;
22967;SDS011;11650;48.106;-1.696;2022-08-21T15:51:45;2.30;;;1.20;;
22967;SDS011;11650;48.106;-1.696;2022-08-21T15:54:11;1.53;;;0.90;;
22967;SDS011;11650;48.106;-1.696;2022-08-21T15:56:37;1.40;;;1.10;;
22967;SDS011;11650;48.106;-1.696;2022-08-21T15:59:12;1.50;;;0.90;;
22967;SDS011;11650;48.106;-1.696;2022-08-21T16:01:40;1.13;;;0.90;;